Time;durP1;ratioP1;P1;durP2;ratioP2;P2;SDS_P1;SDS_P2;PMS_P1;PMS_P2;Temp;Humidity;BMP_temperature;BMP_pressure;BME280_temperature;BME280_humidity;BME280_pressure;Samples;Min_cycle;Max_cycle;Signal;HPM_P1;HPM_P2
2023/09/09 00:00:28;;;;;;;9.80;4.53;;;;;;;20.27;95.46;100218.19;5131027;27;20062;-64
2023/09/09 00:02:54;;;;;;;7.75;4.88;;;;;;;20.40;94.95;100215.47;5123728;27;20047;-63
2023/09/09 00:05:19;;;;;;;9.98;4.70;;;;;;;20.53;93.23;100219.13;5122821;27;20031;-64
2023/09/09 00:07:45;;;;;;;7.07;4.20;;;;;;;20.54;92.35;100218.91;5132429;27;20042;-63
2023/09/09 00:10:10;;;;;;;6.32;3.83;;;;;;;20.51;91.25;100208.56;5123281;27;20053;-63
2023/09/09 00:12:36;;;;;;;6.32;3.92;;;;;;;20.54;91.26;100215.41;5123380;27;20328;-63
2023/09/09 00:15:07;;;;;;;6.53;4.25;;;;;;;20.61;90.78;100213.50;5122612;27;20043;-63
2023/09/09 00:17:32;;;;;;;6.03;3.78;;;;;;;20.66;89.76;100209.13;5132351;27;20034;-64
2023/09/09 00:19:57;;;;;;;4.95;4.05;;;;;;;20.73;89.49;100203.69;5132573;27;20027;-64
2023/09/09 00:22:23;;;;;;;5.45;4.22;;;;;;;20.77;89.12;100204.06;5123232;27;20375;-64
2023/09/09 00:24:48;;;;;;;7.63;4.68;;;;;;;20.62;90.43;100201.69;5123378;27;20035;-64
2023/09/09 00:27:14;;;;;;;7.53;4.30;;;;;;;20.82;88.87;100199.72;5122604;27;20035;-64
2023/09/09 00:29:39;;;;;;;6.78;4.18;;;;;;;20.87;88.56;100196.38;5122415;27;20072;-64
2023/09/09 00:32:05;;;;;;;11.40;5.47;;;;;;;20.84;88.58;100191.44;5122795;27;20151;-64
2023/09/09 00:34:33;;;;;;;7.25;4.72;;;;;;;20.88;88.59;100201.53;5122700;27;20292;-63
2023/09/09 00:36:58;;;;;;;10.73;4.25;;;;;;;20.80;88.75;100200.94;5122340;27;20035;-64
2023/09/09 00:39:23;;;;;;;7.03;4.35;;;;;;;20.80;89.07;100200.94;5122068;27;20333;-64
2023/09/09 00:41:49;;;;;;;8.00;4.95;;;;;;;20.75;89.43;100209.69;5122090;27;20042;-64
2023/09/09 00:44:14;;;;;;;5.68;3.88;;;;;;;20.86;89.25;100205.50;5122702;27;20039;-65
2023/09/09 00:46:40;;;;;;;5.53;4.10;;;;;;;20.81;89.09;100200.75;5124609;27;20091;-64
2023/09/09 00:49:05;;;;;;;5.88;3.88;;;;;;;20.82;88.97;100198.91;5137502;27;20039;-64
2023/09/09 00:51:31;;;;;;;7.70;4.47;;;;;;;20.85;88.41;100193.09;5123363;27;20027;-63
2023/09/09 00:53:57;;;;;;;10.35;4.65;;;;;;;20.92;88.14;100194.69;5122467;27;20313;-64
2023/09/09 00:56:22;;;;;;;6.13;4.47;;;;;;;20.91;88.05;100197.59;5122781;27;20042;-64
2023/09/09 00:58:48;;;;;;;6.00;4.15;;;;;;;20.79;88.67;100194.75;5122304;27;20032;-64
2023/09/09 01:01:13;;;;;;;6.25;4.40;;;;;;;20.90;88.66;100193.25;5121887;27;20404;-63
2023/09/09 01:03:39;;;;;;;4.85;4.20;;;;;;;20.97;87.99;100186.78;5122403;27;20359;-64
2023/09/09 01:06:05;;;;;;;7.50;4.22;;;;;;;21.02;87.72;100186.94;5122622;27;20262;-64
2023/09/09 01:08:31;;;;;;;6.07;4.40;;;;;;;21.02;87.63;100189.63;5122300;27;20042;-64
2023/09/09 01:10:57;;;;;;;4.95;3.90;;;;;;;21.00;87.46;100182.81;5122335;27;20055;-64
2023/09/09 01:13:23;;;;;;;5.78;4.00;;;;;;;20.98;87.59;100182.22;5122260;27;20077;-64
2023/09/09 01:15:49;;;;;;;5.20;4.00;;;;;;;20.99;87.53;100175.78;5120530;27;20059;-64
2023/09/09 01:18:16;;;;;;;6.55;4.25;;;;;;;21.03;87.24;100172.44;5130016;27;20049;-63
2023/09/09 01:20:49;;;;;;;8.85;4.15;;;;;;;21.03;87.45;100166.22;5121197;28;20039;-64
2023/09/09 01:23:14;;;;;;;6.43;4.50;;;;;;;21.08;87.35;100168.25;5121318;27;20345;-64
2023/09/09 01:25:39;;;;;;;7.43;4.13;;;;;;;21.14;87.35;100165.50;5121742;27;20063;-64
2023/09/09 01:28:05;;;;;;;6.72;4.70;;;;;;;21.00;88.72;100172.06;5121013;27;20382;-64
2023/09/09 01:30:31;;;;;;;4.68;4.10;;;;;;;20.93;89.92;100165.91;5121768;27;20024;-64
2023/09/09 01:32:56;;;;;;;6.00;4.15;;;;;;;20.97;88.91;100164.41;5121617;27;20353;-62
2023/09/09 01:35:21;;;;;;;7.70;5.22;;;;;;;20.94;89.41;100168.38;5122270;27;20333;-63
2023/09/09 01:37:48;;;;;;;5.60;4.43;;;;;;;20.94;89.09;100159.47;5121837;27;20254;-63
2023/09/09 01:40:14;;;;;;;6.50;4.25;;;;;;;21.00;88.67;100169.34;5121441;27;20073;-63
2023/09/09 01:42:40;;;;;;;10.00;5.75;;;;;;;20.86;90.12;100175.88;5121199;27;20043;-63
2023/09/09 01:45:06;;;;;;;8.55;5.18;;;;;;;20.78;90.41;100179.63;5121320;28;20317;-63
2023/09/09 01:47:31;;;;;;;12.95;7.47;;;;;;;20.78;91.11;100176.94;5121282;28;20347;-63
2023/09/09 01:49:57;;;;;;;36.25;15.98;;;;;;;20.88;90.90;100174.63;5121154;28;20030;-63
2023/09/09 01:52:22;;;;;;;54.00;23.77;;;;;;;20.86;91.25;100178.59;5121322;28;20054;-63
2023/09/09 01:54:48;;;;;;;57.10;26.48;;;;;;;20.86;91.18;100181.28;5121903;28;20337;-63
2023/09/09 01:57:16;;;;;;;41.22;18.75;;;;;;;20.88;91.27;100177.31;5110704;28;20078;-63
2023/09/09 01:59:41;;;;;;;32.58;15.82;;;;;;;20.86;91.62;100181.28;5121607;28;20330;-63
2023/09/09 02:02:07;;;;;;;27.00;13.25;;;;;;;20.99;91.31;100178.47;5122516;28;20072;-64
2023/09/09 02:04:32;;;;;;;20.15;9.65;;;;;;;21.01;91.29;100179.91;5122024;28;20069;-63
2023/09/09 02:06:58;;;;;;;14.88;7.53;;;;;;;21.06;90.58;100173.88;5121904;28;20054;-64
2023/09/09 02:09:23;;;;;;;10.32;6.65;;;;;;;21.02;90.99;100175.34;5121943;28;20046;-63
2023/09/09 02:11:49;;;;;;;11.05;6.00;;;;;;;21.02;90.88;100175.34;5121263;28;20044;-63
2023/09/09 02:14:14;;;;;;;9.52;5.40;;;;;;;20.97;90.99;100176.00;5120747;28;20072;-64
2023/09/09 02:16:39;;;;;;;10.32;5.72;;;;;;;21.02;90.69;100173.47;5121995;28;20023;-63
2023/09/09 02:19:05;;;;;;;8.20;5.70;;;;;;;21.07;90.73;100180.06;5121498;28;20094;-63
2023/09/09 02:21:30;;;;;;;9.27;5.70;;;;;;;21.15;90.17;100177.09;5103321;28;20035;-64
2023/09/09 02:23:56;;;;;;;9.13;6.28;;;;;;;21.18;89.83;100177.50;5120804;28;20050;-64
2023/09/09 02:26:22;;;;;;;8.57;6.03;;;;;;;21.15;89.88;100171.72;5121174;28;20069;-64
2023/09/09 02:28:49;;;;;;;24.35;13.48;;;;;;;21.12;90.02;100174.84;5131052;27;20035;-64
2023/09/09 02:31:15;;;;;;;48.33;21.88;;;;;;;21.16;89.55;100170.69;5124951;27;20072;-63
2023/09/09 02:33:40;;;;;;;37.58;18.25;;;;;;;21.20;89.15;100178.09;5124669;27;20252;-63
2023/09/09 02:36:06;;;;;;;29.25;15.32;;;;;;;21.19;88.38;100176.44;5124753;27;20216;-63
2023/09/09 02:38:31;;;;;;;30.23;15.30;;;;;;;21.15;88.64;100175.22;5124847;27;20036;-63
2023/09/09 02:40:57;;;;;;;22.40;13.18;;;;;;;21.11;89.20;100174.03;5134430;27;20321;-64
2023/09/09 02:43:22;;;;;;;21.50;11.95;;;;;;;21.12;88.95;100174.84;5125445;27;20051;-63
2023/09/09 02:45:48;;;;;;;23.05;11.73;;;;;;;21.12;88.18;100175.69;5125603;27;20028;-63
2023/09/09 02:48:13;;;;;;;25.33;13.20;;;;;;;21.04;86.52;100171.41;5125119;27;20051;-63
2023/09/09 02:50:38;;;;;;;26.55;13.25;;;;;;;21.00;85.84;100177.44;5125122;27;20322;-64
2023/09/09 02:53:04;;;;;;;20.52;11.43;;;;;;;20.98;86.48;100176.84;5124774;27;20061;-63
2023/09/09 02:55:29;;;;;;;21.83;10.45;;;;;;;20.95;85.52;100166.50;5133171;27;20039;-64
2023/09/09 02:57:55;;;;;;;14.95;8.93;;;;;;;20.93;87.50;100179.34;5125511;27;20050;-64
2023/09/09 03:00:21;;;;;;;15.60;7.90;;;;;;;20.89;88.24;100165.50;5125441;27;20038;-63
2023/09/09 03:02:47;;;;;;;11.27;7.15;;;;;;;20.91;88.57;100167.97;5124210;27;20043;-63
2023/09/09 03:05:12;;;;;;;14.20;8.30;;;;;;;20.85;88.57;100160.78;5125038;27;20189;-63
2023/09/09 03:07:39;;;;;;;12.20;7.75;;;;;;;20.78;87.88;100154.59;5123830;27;20323;-63
2023/09/09 03:10:05;;;;;;;13.85;7.90;;;;;;;20.81;86.49;100162.25;5123841;27;20321;-64
2023/09/09 03:12:31;;;;;;;10.63;7.15;;;;;;;20.72;85.44;100158.97;5124118;27;21334;-64
2023/09/09 03:14:56;;;;;;;9.95;5.50;;;;;;;20.43;83.88;100160.41;5123784;27;20039;-63
2023/09/09 03:17:21;;;;;;;11.68;6.45;;;;;;;20.40;83.91;100163.53;5123923;27;20047;-63
2023/09/09 03:19:47;;;;;;;11.13;7.75;;;;;;;20.39;85.89;100164.56;5124418;27;20076;-64
2023/09/09 03:22:12;;;;;;;16.45;8.13;;;;;;;20.36;86.85;100160.41;5124210;27;20046;-63
2023/09/09 03:24:38;;;;;;;13.15;7.85;;;;;;;20.36;87.30;100162.28;5124659;27;20027;-63
2023/09/09 03:27:03;;;;;;;13.93;7.78;;;;;;;20.31;87.50;100160.25;5124479;27;20027;-63
2023/09/09 03:29:29;;;;;;;13.80;8.25;;;;;;;20.23;88.66;100152.44;5124282;27;20050;-63
2023/09/09 03:31:55;;;;;;;19.08;10.73;;;;;;;20.20;90.14;100157.41;5124381;27;20035;-63
2023/09/09 03:34:20;;;;;;;16.88;9.45;;;;;;;20.23;90.49;100148.91;5123555;27;20045;-63
2023/09/09 03:36:45;;;;;;;14.13;8.50;;;;;;;20.20;88.68;100157.41;5123634;27;20031;-63
2023/09/09 03:39:11;;;;;;;13.75;7.70;;;;;;;20.25;87.63;100153.03;5133027;27;20037;-63
2023/09/09 03:41:38;;;;;;;15.55;7.40;;;;;;;19.98;83.97;100157.72;5124025;27;20107;-63
2023/09/09 03:44:03;;;;;;;14.73;6.28;;;;;;;20.06;83.00;100156.66;5133197;27;20032;-64
2023/09/09 03:46:29;;;;;;;12.35;7.72;;;;;;;19.89;83.51;100163.53;5124561;27;20034;-63
2023/09/09 03:48:54;;;;;;;13.95;9.48;;;;;;;19.82;85.45;100163.56;5123862;27;20036;-64
2023/09/09 03:51:20;;;;;;;14.25;8.93;;;;;;;19.88;87.75;100165.41;5124768;27;20207;-64
2023/09/09 03:53:46;;;;;;;12.65;7.35;;;;;;;19.88;87.51;100160.03;5131541;27;20321;-63
2023/09/09 03:56:11;;;;;;;18.65;8.90;;;;;;;19.90;88.29;100163.31;5123698;27;20313;-63
2023/09/09 03:58:36;;;;;;;13.15;6.85;;;;;;;19.85;85.48;100170.38;5123112;27;20336;-63
2023/09/09 04:01:06;;;;;;;11.90;7.32;;;;;;;19.93;83.71;100172.84;5124616;27;20366;-63
2023/09/09 04:03:35;;;;;;;12.18;7.40;;;;;;;19.95;83.77;100162.69;5123499;27;20063;-64
2023/09/09 04:06:04;;;;;;;11.70;6.32;;;;;;;19.93;86.47;100170.97;5123815;27;20055;-64
2023/09/09 04:08:30;;;;;;;10.25;5.78;;;;;;;19.80;89.84;100162.94;5123007;27;20057;-63
2023/09/09 04:10:55;;;;;;;11.48;6.38;;;;;;;19.85;91.03;100170.38;5123327;27;20370;-64
2023/09/09 04:13:21;;;;;;;10.23;5.93;;;;;;;19.92;90.61;100163.94;5123912;27;20031;-64
2023/09/09 04:15:46;;;;;;;10.20;6.43;;;;;;;20.04;89.59;100169.47;5123648;27;20031;-64
2023/09/09 04:18:12;;;;;;;8.60;6.03;;;;;;;20.06;88.31;100172.78;5123653;27;20074;-64
2023/09/09 04:20:38;;;;;;;10.88;5.28;;;;;;;20.08;87.65;100174.22;5123629;27;20038;-64
2023/09/09 04:23:04;;;;;;;6.63;5.18;;;;;;;20.11;89.21;100170.28;5123287;27;20032;-64
2023/09/09 04:25:29;;;;;;;9.73;6.20;;;;;;;20.14;90.17;100166.34;5123646;27;20043;-64
2023/09/09 04:27:54;;;;;;;8.00;5.70;;;;;;;19.96;91.36;100167.03;5124107;27;20271;-64
2023/09/09 04:30:20;;;;;;;8.88;5.40;;;;;;;19.87;92.15;100171.81;5131654;27;20211;-63
2023/09/09 04:32:45;;;;;;;9.65;5.53;;;;;;;19.91;91.85;100173.03;5132092;27;20047;-64
2023/09/09 04:35:11;;;;;;;8.23;5.53;;;;;;;19.96;91.96;100172.41;5122129;27;20047;-64
2023/09/09 04:37:36;;;;;;;8.93;5.20;;;;;;;20.04;91.61;100170.31;5130565;27;20240;-65
2023/09/09 04:40:05;;;;;;;8.98;5.57;;;;;;;20.03;91.80;100163.28;5131314;27;20337;-64
2023/09/09 04:42:30;;;;;;;7.47;5.05;;;;;;;20.08;92.07;100162.63;5124620;27;20031;-64
2023/09/09 04:44:56;;;;;;;11.07;5.80;;;;;;;20.19;91.74;100166.50;5121604;27;20110;-64
2023/09/09 04:47:21;;;;;;;8.00;5.70;;;;;;;20.08;92.03;100166.16;5122250;27;20075;-64
2023/09/09 04:49:46;;;;;;;9.60;5.53;;;;;;;19.97;93.00;100166.81;5121748;27;20041;-64
2023/09/09 04:52:12;;;;;;;7.65;5.20;;;;;;;20.05;92.62;100171.13;5122178;27;20348;-63
2023/09/09 04:54:37;;;;;;;7.63;5.13;;;;;;;20.08;92.21;100168.00;5123360;27;20031;-64
2023/09/09 04:57:04;;;;;;;10.05;5.35;;;;;;;20.22;91.64;100171.47;5123146;27;20035;-64
2023/09/09 04:59:30;;;;;;;9.40;5.38;;;;;;;20.30;91.12;100166.66;5122805;27;20031;-64
2023/09/09 05:01:55;;;;;;;6.93;5.22;;;;;;;20.27;91.99;100169.78;5122879;27;20226;-65
2023/09/09 05:04:20;;;;;;;9.68;5.07;;;;;;;20.36;91.47;100168.50;5121845;27;20035;-64
2023/09/09 05:06:46;;;;;;;6.75;4.95;;;;;;;20.32;91.96;100167.28;5121569;27;20034;-65
2023/09/09 05:09:11;;;;;;;7.47;5.10;;;;;;;20.27;92.16;100160.88;5122081;27;20044;-64
2023/09/09 05:11:37;;;;;;;7.65;5.30;;;;;;;20.31;91.55;100162.94;5122438;27;20088;-65
2023/09/09 05:14:02;;;;;;;5.75;5.00;;;;;;;20.18;92.84;100165.69;5121721;27;20260;-63
2023/09/09 05:16:29;;;;;;;5.75;4.88;;;;;;;20.22;92.90;100164.22;5122766;27;20027;-62
2023/09/09 05:18:55;;;;;;;7.20;4.90;;;;;;;20.36;92.23;100164.97;5122669;27;20197;-62
2023/09/09 05:21:20;;;;;;;6.50;4.40;;;;;;;20.58;91.30;100176.25;5122803;27;20068;-63
2023/09/09 05:23:46;;;;;;;7.80;5.28;;;;;;;20.73;90.05;100172.22;5121424;27;20040;-63
2023/09/09 05:26:11;;;;;;;9.98;4.03;;;;;;;21.06;89.23;100167.66;5121653;27;20031;-62
2023/09/09 05:28:37;;;;;;;6.03;4.40;;;;;;;20.98;87.53;100166.88;5121344;27;20193;-63
2023/09/09 05:31:06;;;;;;;8.23;4.15;;;;;;;20.91;87.05;100166.13;5121536;27;20035;-63
2023/09/09 05:33:31;;;;;;;5.57;4.72;;;;;;;20.97;86.91;100167.94;5122065;27;20035;-63
2023/09/09 05:35:57;;;;;;;6.47;4.40;;;;;;;21.11;87.47;100174.03;5122041;27;20401;-64
2023/09/09 05:38:22;;;;;;;8.02;4.20;;;;;;;21.28;86.88;100164.38;5122230;28;20046;-63
2023/09/09 05:40:48;;;;;;;6.90;4.85;;;;;;;21.35;86.01;100159.75;5122048;27;20136;-63
2023/09/09 05:43:13;;;;;;;7.82;4.75;;;;;;;21.38;85.37;100165.75;5121424;27;20043;-63
2023/09/09 05:45:38;;;;;;;4.57;4.00;;;;;;;21.42;84.51;100169.63;5121297;27;20057;-64
2023/09/09 05:48:04;;;;;;;8.05;4.00;;;;;;;21.85;82.62;100165.03;5122024;28;20035;-63
2023/09/09 05:50:30;;;;;;;8.50;3.97;;;;;;;22.05;79.60;100166.72;5121520;28;20031;-63
2023/09/09 05:52:55;;;;;;;7.75;4.10;;;;;;;22.22;79.24;100165.03;5122203;28;20085;-64
2023/09/09 05:55:21;;;;;;;5.95;4.07;;;;;;;22.50;78.89;100159.88;5121267;28;20299;-63
2023/09/09 05:57:46;;;;;;;6.50;3.70;;;;;;;22.61;78.64;100163.66;5122383;28;20084;-64
2023/09/09 06:00:12;;;;;;;5.63;3.83;;;;;;;22.56;78.28;100167.03;5130271;28;20372;-64
2023/09/09 06:02:37;;;;;;;5.60;4.55;;;;;;;22.62;78.29;100165.28;5122020;28;20039;-63
2023/09/09 06:05:04;;;;;;;9.50;4.63;;;;;;;22.62;78.35;100174.22;5125748;27;20241;-64
2023/09/09 06:07:30;;;;;;;7.68;4.40;;;;;;;22.93;77.22;100167.78;5134170;27;20058;-63
2023/09/09 06:09:55;;;;;;;5.53;4.28;;;;;;;23.04;78.06;100162.63;5126266;27;20045;-63
2023/09/09 06:12:21;;;;;;;7.47;4.55;;;;;;;22.95;79.27;100162.13;5124849;27;20120;-64
2023/09/09 06:14:46;;;;;;;7.68;4.50;;;;;;;23.02;79.46;100165.56;5135010;27;20038;-63
2023/09/09 06:17:11;;;;;;;6.28;4.70;;;;;;;23.39;79.37;100152.63;5124583;27;20041;-64
2023/09/09 06:19:37;;;;;;;8.85;4.57;;;;;;;23.46;77.58;100161.44;5125500;27;20056;-64
2023/09/09 06:22:02;;;;;;;6.50;4.60;;;;;;;23.62;76.35;100167.22;5126625;27;20042;-63
2023/09/09 06:24:28;;;;;;;9.00;5.43;;;;;;;23.76;76.04;100169.44;5125140;27;20464;-64
2023/09/09 06:26:54;;;;;;;6.00;4.60;;;;;;;23.62;75.28;100173.44;5126111;27;20054;-64
2023/09/09 06:29:20;;;;;;;8.30;4.30;;;;;;;23.77;74.99;100172.97;5125437;27;20054;-64
2023/09/09 06:31:45;;;;;;;7.38;4.60;;;;;;;23.91;75.50;100177.03;5146560;27;20412;-65
2023/09/09 06:34:11;;;;;;;14.65;5.28;;;;;;;24.06;74.82;100173.84;5134409;27;20030;-64
2023/09/09 06:36:36;;;;;;;7.10;4.78;;;;;;;23.96;74.04;100174.47;5129430;27;20056;-63
2023/09/09 06:39:03;;;;;;;7.45;4.95;;;;;;;23.88;74.45;100178.34;5125606;27;20229;-64
2023/09/09 06:41:28;;;;;;;6.90;4.47;;;;;;;24.15;73.76;100167.00;5135156;27;20047;-64
2023/09/09 06:43:53;;;;;;;8.13;4.70;;;;;;;24.30;72.98;100177.34;5125488;27;20035;-63
2023/09/09 06:46:19;;;;;;;6.95;4.18;;;;;;;24.26;71.95;100174.25;5125260;27;20262;-64
2023/09/09 06:48:44;;;;;;;5.63;4.30;;;;;;;24.46;71.00;100176.56;5124360;27;20069;-64
2023/09/09 06:51:10;;;;;;;5.18;3.95;;;;;;;24.54;69.74;100178.88;5124696;27;20255;-64
2023/09/09 06:53:35;;;;;;;8.98;4.30;;;;;;;24.70;68.75;100183.50;5125217;27;20027;-64
2023/09/09 06:56:01;;;;;;;8.05;4.45;;;;;;;24.84;69.36;100176.72;5125502;27;20047;-65
2023/09/09 06:58:26;;;;;;;5.50;3.80;;;;;;;24.89;67.35;100180.56;5133470;27;20233;-65
2023/09/09 07:00:52;;;;;;;6.28;3.70;;;;;;;24.96;66.68;100178.50;5133524;27;20036;-65
2023/09/09 07:03:21;;;;;;;9.32;4.13;;;;;;;25.03;67.47;100171.09;5124482;27;20040;-65
2023/09/09 07:05:47;;;;;;;6.55;4.10;;;;;;;25.23;66.10;100178.75;5124964;27;20244;-65
2023/09/09 07:08:12;;;;;;;7.15;4.28;;;;;;;25.26;63.05;100167.41;5132147;28;20051;-65
2023/09/09 07:10:38;;;;;;;6.35;3.58;;;;;;;25.32;64.14;100175.38;5123238;28;20106;-63
2023/09/09 07:13:04;;;;;;;5.05;3.85;;;;;;;25.55;63.66;100173.50;5123170;28;20045;-64
2023/09/09 07:15:29;;;;;;;4.93;3.42;;;;;;;25.55;62.79;100162.66;5132163;28;20055;-64
2023/09/09 07:17:55;;;;;;;7.82;3.65;;;;;;;25.80;61.93;100171.19;5123560;27;20053;-64
2023/09/09 07:20:21;;;;;;;3.90;3.58;;;;;;;26.04;60.97;100171.78;5123548;28;20069;-65
2023/09/09 07:22:47;;;;;;;7.65;3.65;;;;;;;26.20;61.16;100157.31;5123268;27;20092;-64
2023/09/09 07:25:12;;;;;;;4.95;3.50;;;;;;;26.23;59.33;100167.66;5122743;28;20035;-64
2023/09/09 07:27:38;;;;;;;5.72;3.38;;;;;;;26.43;58.11;100169.81;5132379;28;20039;-64
2023/09/09 07:30:04;;;;;;;5.40;3.40;;;;;;;26.59;55.00;100168.88;5135667;28;20038;-64
2023/09/09 07:32:30;;;;;;;6.45;3.00;;;;;;;26.57;53.95;100168.31;5136499;28;20035;-64
2023/09/09 07:34:56;;;;;;;4.00;2.88;;;;;;;26.57;52.83;100171.03;5135672;28;20217;-64
2023/09/09 07:37:21;;;;;;;5.45;3.03;;;;;;;26.82;51.03;100169.63;5135947;28;20028;-65
2023/09/09 07:39:50;;;;;;;4.40;3.30;;;;;;;27.09;50.54;100173.16;5135998;28;20038;-64
2023/09/09 07:42:17;;;;;;;4.50;3.88;;;;;;;27.03;51.89;100160.59;5135505;28;20046;-65
2023/09/09 07:44:43;;;;;;;4.60;3.13;;;;;;;27.11;51.23;100157.41;5135790;28;20345;-65
2023/09/09 07:47:09;;;;;;;7.07;3.47;;;;;;;27.11;50.96;100154.69;5135981;28;20039;-64
2023/09/09 07:49:35;;;;;;;7.78;3.00;;;;;;;27.00;46.30;100159.22;5135166;28;20035;-64
2023/09/09 07:52:01;;;;;;;6.50;3.20;;;;;;;27.20;46.53;100155.03;5135730;28;20039;-64
2023/09/09 07:54:26;;;;;;;5.25;2.92;;;;;;;27.22;42.54;100153.69;5135409;28;20181;-64
2023/09/09 07:56:53;;;;;;;8.70;3.13;;;;;;;27.46;45.20;100151.38;5135232;28;20376;-64
2023/09/09 07:59:18;;;;;;;6.70;3.42;;;;;;;27.46;44.41;100154.13;5134757;28;20035;-64
2023/09/09 08:01:44;;;;;;;5.13;2.95;;;;;;;27.52;46.15;100153.06;5135014;28;20042;-63
2023/09/09 08:04:09;;;;;;;5.35;3.28;;;;;;;27.47;44.55;100158.47;5134827;28;20076;-64
2023/09/09 08:06:35;;;;;;;5.63;2.83;;;;;;;27.65;45.92;100159.97;5094504;27;1145754;-64
2023/09/09 08:09:01;;;;;;;4.32;3.10;;;;;;;27.75;43.86;100153.75;5135894;27;20326;-64
2023/09/09 08:11:26;;;;;;;5.00;2.58;;;;;;;27.29;45.01;100151.56;5135479;27;20031;-64
2023/09/09 08:13:52;;;;;;;4.07;3.13;;;;;;;27.54;43.64;100152.78;5135231;27;20042;-64
2023/09/09 08:16:17;;;;;;;4.82;2.78;;;;;;;27.58;44.04;100156.63;5135632;27;20202;-63
2023/09/09 08:18:42;;;;;;;5.13;3.42;;;;;;;27.73;44.61;100150.47;5135462;27;20027;-62
2023/09/09 08:21:10;;;;;;;3.42;2.90;;;;;;;27.72;41.14;100151.56;5135810;27;20041;-63
2023/09/09 08:23:36;;;;;;;3.97;2.40;;;;;;;27.71;39.26;100150.75;5135764;27;20232;-64
2023/09/09 08:26:01;;;;;;;4.57;3.58;;;;;;;27.76;42.39;100150.75;5135063;27;20027;-64
2023/09/09 08:28:27;;;;;;;3.33;2.67;;;;;;;27.90;41.58;100143.75;5134489;27;20256;-64
2023/09/09 08:31:00;;;;;;;2.88;2.35;;;;;;;28.12;41.66;100143.56;5135492;27;20076;-63
2023/09/09 08:33:25;;;;;;;4.33;2.80;;;;;;;28.23;38.97;100147.19;5135438;27;20027;-64
2023/09/09 08:35:51;;;;;;;4.22;2.53;;;;;;;27.97;39.19;100147.03;5135819;27;20035;-64
2023/09/09 08:38:17;;;;;;;5.70;2.47;;;;;;;27.87;37.56;100138.00;5135716;27;20035;-65
2023/09/09 08:40:55;;;;;;;3.47;2.60;;;;;;;27.77;36.83;100137.97;5135595;27;20358;-64
2023/09/09 08:43:45;;;;;;;3.70;2.42;;;;;;;27.82;35.79;100138.00;5135444;27;21074;-62
2023/09/09 08:46:17;;;;;;;3.70;2.80;;;;;;;27.75;35.78;100132.78;5135678;27;20039;-63
2023/09/09 08:48:43;;;;;;;4.45;2.42;;;;;;;27.91;36.94;100134.50;5137574;27;20035;-62
2023/09/09 08:51:28;;;;;;;3.33;2.75;;;;;;;27.97;37.31;100136.16;5136081;27;20075;-63
2023/09/09 08:53:56;;;;;;;6.15;2.53;;;;;;;27.97;36.08;100132.59;5135567;27;20046;-62
2023/09/09 08:56:21;;;;;;;3.78;2.58;;;;;;;27.98;34.97;100135.06;5135875;27;20222;-62
2023/09/09 08:58:47;;;;;;;2.63;2.28;;;;;;;27.74;34.38;100130.34;5134713;27;20107;-64
2023/09/09 09:01:14;;;;;;;3.88;2.40;;;;;;;27.70;35.11;100131.97;5136430;27;20120;-64
2023/09/09 09:03:40;;;;;;;5.22;2.38;;;;;;;27.75;36.88;100126.53;5134504;27;20451;-64
2023/09/09 09:06:06;;;;;;;6.05;2.53;;;;;;;27.85;35.91;100134.75;5134856;27;20035;-65
2023/09/09 09:08:32;;;;;;;4.53;2.42;;;;;;;27.79;35.98;100133.09;5135829;27;20364;-64
2023/09/09 09:10:58;;;;;;;7.30;2.50;;;;;;;27.80;34.49;100129.28;5135399;27;20058;-64
2023/09/09 09:13:24;;;;;;;5.70;2.38;;;;;;;27.65;34.72;100124.59;5135096;27;20031;-64
2023/09/09 09:15:50;;;;;;;4.63;2.28;;;;;;;27.68;34.41;100124.06;5135772;27;20054;-64
2023/09/09 09:18:15;;;;;;;3.88;2.22;;;;;;;27.28;33.75;100128.19;5135582;27;20229;-64
2023/09/09 09:20:41;;;;;;;3.90;2.25;;;;;;;27.18;33.47;100128.09;5135723;27;20038;-64
2023/09/09 09:23:10;;;;;;;3.75;2.13;;;;;;;26.84;34.11;100126.72;5135954;27;20349;-64
2023/09/09 09:25:40;;;;;;;5.00;2.13;;;;;;;26.66;35.05;100120.59;5135648;27;20382;-65
2023/09/09 09:28:05;;;;;;;3.45;2.55;;;;;;;26.55;35.12;100118.88;5134605;27;20049;-63
2023/09/09 09:30:31;;;;;;;3.13;2.58;;;;;;;26.53;35.71;100125.63;5134823;27;20031;-64
2023/09/09 09:32:57;;;;;;;4.15;2.60;;;;;;;26.31;34.89;100115.63;5134461;27;20027;-63
2023/09/09 09:35:27;;;;;;;3.70;2.00;;;;;;;26.42;35.57;100113.84;5134026;27;20043;-64
2023/09/09 09:37:56;;;;;;;3.20;2.20;;;;;;;26.43;34.77;100115.50;5135914;27;20325;-63
2023/09/09 09:40:22;;;;;;;5.18;2.50;;;;;;;26.53;36.42;100102.00;5135425;27;20031;-64
2023/09/09 09:42:48;;;;;;;4.68;2.40;;;;;;;26.61;36.44;100104.25;5134762;27;20054;-62
2023/09/09 09:45:14;;;;;;;5.57;2.50;;;;;;;26.59;35.73;100103.69;5134555;27;20023;-62
2023/09/09 09:47:50;;;;;;;3.08;2.42;;;;;;;26.61;37.26;100104.25;5135461;27;20062;-62
2023/09/09 09:50:22;;;;;;;3.38;2.40;;;;;;;26.62;36.03;100103.19;5134796;28;20034;-62
2023/09/09 09:53:00;;;;;;;5.40;2.30;;;;;;;26.69;36.24;100098.34;5134589;28;20047;-63
2023/09/09 09:55:26;;;;;;;3.25;2.22;;;;;;;26.76;37.13;100103.56;5134433;28;20039;-62
2023/09/09 09:57:58;;;;;;;3.47;2.50;;;;;;;26.77;36.13;100096.22;5130287;28;20341;-62
2023/09/09 10:00:24;;;;;;;2.60;1.90;;;;;;;26.83;36.41;100101.44;5129747;28;20032;-62
2023/09/09 10:02:55;;;;;;;3.42;2.22;;;;;;;26.93;36.62;100097.97;5120769;28;20043;-62
2023/09/09 10:05:23;;;;;;;3.40;2.30;;;;;;;26.91;35.50;100094.69;5121792;28;20308;-62
2023/09/09 10:08:28;;;;;;;2.33;1.70;;;;;;;27.01;34.28;100097.53;5120700;28;20115;-62
2023/09/09 10:11:01;;;;;;;2.97;2.13;;;;;;;26.97;34.67;100096.38;5120662;28;20431;-62
2023/09/09 10:13:53;;;;;;;5.32;2.17;;;;;;;26.83;34.96;100087.84;5121797;28;20070;-62
2023/09/09 10:16:22;;;;;;;4.63;1.92;;;;;;;26.87;31.82;100085.44;5125006;28;20421;-62
2023/09/09 10:18:49;;;;;;;3.67;1.80;;;;;;;26.84;32.50;100078.63;5121076;28;20402;-62
2023/09/09 10:21:17;;;;;;;3.60;1.77;;;;;;;26.87;33.64;100074.56;5121501;28;20080;-63
2023/09/09 10:23:45;;;;;;;3.05;2.05;;;;;;;26.96;34.26;100073.81;5120483;28;20341;-62
2023/09/09 10:26:11;;;;;;;3.58;2.15;;;;;;;27.05;32.78;100068.78;5112142;28;20042;-63
2023/09/09 10:28:37;;;;;;;4.63;2.03;;;;;;;27.04;32.60;100072.53;5122583;28;20333;-62
2023/09/09 10:31:05;;;;;;;3.58;2.00;;;;;;;26.98;34.45;100066.25;5138111;28;20255;-63
2023/09/09 10:33:31;;;;;;;3.00;1.88;;;;;;;27.04;33.63;100064.38;5122091;28;20038;-62
2023/09/09 10:35:58;;;;;;;2.65;1.67;;;;;;;26.96;32.94;100060.22;5120984;28;20378;-63
2023/09/09 10:38:26;;;;;;;6.25;2.40;;;;;;;26.92;33.50;100061.84;5121368;28;20035;-62
2023/09/09 10:40:52;;;;;;;3.17;1.88;;;;;;;26.98;31.54;100057.28;5120478;28;20023;-62
2023/09/09 10:43:18;;;;;;;4.85;2.00;;;;;;;26.90;33.09;100050.41;5120684;28;20031;-62
2023/09/09 10:45:44;;;;;;;3.13;1.73;;;;;;;26.93;33.34;100044.44;5120242;28;20035;-62
2023/09/09 10:48:13;;;;;;;2.97;1.92;;;;;;;26.94;33.07;100045.28;5120758;28;20413;-62
2023/09/09 10:50:47;;;;;;;4.18;2.28;;;;;;;26.90;32.72;100039.53;5123687;27;20058;-63
2023/09/09 10:53:26;;;;;;;2.58;1.88;;;;;;;26.96;33.76;100026.81;5123720;27;20039;-63
2023/09/09 10:56:15;;;;;;;4.40;1.90;;;;;;;27.07;33.71;100033.19;5123572;27;20035;-63
2023/09/09 10:58:43;;;;;;;5.30;1.83;;;;;;;27.17;31.58;100033.22;5088281;27;20329;-62
2023/09/09 11:01:09;;;;;;;3.90;1.88;;;;;;;27.10;31.56;100032.66;5133337;27;20248;-62
2023/09/09 11:03:57;;;;;;;4.20;1.70;;;;;;;27.09;32.82;100034.56;5132660;27;20066;-63
2023/09/09 11:06:31;;;;;;;3.72;1.77;;;;;;;27.11;30.82;100026.13;5134959;27;20073;-63
2023/09/09 11:09:00;;;;;;;3.50;2.15;;;;;;;27.16;30.83;100024.25;5136258;27;20062;-63
2023/09/09 11:11:37;;;;;;;3.55;2.10;;;;;;;26.99;29.75;100018.16;5136452;27;20035;-63
2023/09/09 11:14:05;;;;;;;2.20;2.00;;;;;;;26.69;29.71;100022.28;5136128;27;20127;-64
2023/09/09 11:16:36;;;;;;;2.20;2.00;;;;;;;26.72;30.07;100015.50;5137557;27;20450;-63
2023/09/09 11:19:07;;;;;;;4.40;2.13;;;;;;;26.72;29.86;100019.03;5136134;27;20122;-64